sensor_id;sensor_type;location;lat;lon;timestamp;pressure;altitude;pressure_sealevel;temperature;humidity
53619;BME280;68717;53.040;18.488;2023-11-19T00:00:03;101907.13;;;1.38;100.00
53619;BME280;68717;53.040;18.488;2023-11-19T00:00:17;101903.63;;;1.37;100.00
53619;BME280;68717;53.040;18.488;2023-11-19T00:00:50;101908.03;;;1.37;100.00
53619;BME280;68717;53.040;18.488;2023-11-19T00:01:25;101905.41;;;1.37;100.00
53619;BME280;68717;53.040;18.488;2023-11-19T00:01:38;101915.97;;;1.37;100.00
53619;BME280;68717;53.040;18.488;2023-11-19T00:01:52;101911.59;;;1.36;100.00
53619;BME280;68717;53.040;18.488;2023-11-19T00:02:06;101912.53;;;1.35;100.00
53619;BME280;68717;53.040;18.488;2023-11-19T00:02:20;101910.78;;;1.34;100.00
53619;BME280;68717;53.040;18.488;2023-11-19T00:02:34;101916.94;;;1.34;100.00
53619;BME280;68717;53.040;18.488;2023-11-19T00:02:47;101912.56;;;1.33;100.00
53619;BME280;68717;53.040;18.488;2023-11-19T00:03:00;101911.72;;;1.33;100.00
53619;BME280;68717;53.040;18.488;2023-11-19T00:03:13;101905.53;;;1.32;100.00
53619;BME280;68717;53.040;18.488;2023-11-19T00:03:26;101913.47;;;1.32;100.00
53619;BME280;68717;53.040;18.488;2023-11-19T00:03:38;101906.47;;;1.31;100.00
53619;BME280;68717;53.040;18.488;2023-11-19T00:03:51;101913.47;;;1.32;100.00
53619;BME280;68717;53.040;18.488;2023-11-19T00:04:04;101914.38;;;1.31;100.00
53619;BME280;68717;53.040;18.488;2023-11-19T00:04:17;101910.00;;;1.30;100.00
53619;BME280;68717;53.040;18.488;2023-11-19T00:04:31;101920.56;;;1.30;100.00
53619;BME280;68717;53.040;18.488;2023-11-19T00:04:43;101920.56;;;1.30;100.00
53619;BME280;68717;53.040;18.488;2023-11-19T00:04:56;101911.78;;;1.30;100.00
53619;BME280;68717;53.040;18.488;2023-11-19T00:05:11;101909.13;;;1.30;100.00
53619;BME280;68717;53.040;18.488;2023-11-19T00:05:25;101917.91;;;1.30;100.00
53619;BME280;68717;53.040;18.488;2023-11-19T00:05:37;101913.56;;;1.29;100.00
53619;BME280;68717;53.040;18.488;2023-11-19T00:05:50;101918.00;;;1.29;100.00
53619;BME280;68717;53.040;18.488;2023-11-19T00:06:03;101918.00;;;1.29;100.00
53619;BME280;68717;53.040;18.488;2023-11-19T00:06:16;101909.16;;;1.28;100.00
53619;BME280;68717;53.040;18.488;2023-11-19T00:06:30;101917.09;;;1.28;100.00
53619;BME280;68717;53.040;18.488;2023-11-19T00:06:43;101921.53;;;1.28;100.00
53619;BME280;68717;53.040;18.488;2023-11-19T00:06:55;101914.44;;;1.28;100.00
53619;BME280;68717;53.040;18.488;2023-11-19T00:07:14;101910.09;;;1.27;100.00
53619;BME280;68717;53.040;18.488;2023-11-19T00:07:28;101915.38;;;1.27;100.00
53619;BME280;68717;53.040;18.488;2023-11-19T00:07:47;101911.81;;;1.28;100.00
53619;BME280;68717;53.040;18.488;2023-11-19T00:08:00;101912.75;;;1.27;100.00
53619;BME280;68717;53.040;18.488;2023-11-19T00:08:14;101916.25;;;1.28;100.00
53619;BME280;68717;53.040;18.488;2023-11-19T00:08:27;101916.25;;;1.28;100.00
53619;BME280;68717;53.040;18.488;2023-11-19T00:08:40;101913.59;;;1.28;100.00
53619;BME280;68717;53.040;18.488;2023-11-19T00:08:53;101910.09;;;1.27;100.00
53619;BME280;68717;53.040;18.488;2023-11-19T00:09:07;101911.81;;;1.28;100.00
53619;BME280;68717;53.040;18.488;2023-11-19T00:09:20;101914.44;;;1.28;100.00
53619;BME280;68717;53.040;18.488;2023-11-19T00:09:33;101917.09;;;1.28;100.00
53619;BME280;68717;53.040;18.488;2023-11-19T00:09:46;101911.81;;;1.28;100.00
53619;BME280;68717;53.040;18.488;2023-11-19T00:09:58;101913.59;;;1.28;100.00
53619;BME280;68717;53.040;18.488;2023-11-19T00:10:13;101912.69;;;1.29;100.00
53619;BME280;68717;53.040;18.488;2023-11-19T00:10:26;101910.09;;;1.27;100.00
53619;BME280;68717;53.040;18.488;2023-11-19T00:10:40;101908.31;;;1.28;100.00
53619;BME280;68717;53.040;18.488;2023-11-19T00:10:53;101916.25;;;1.28;100.00
53619;BME280;68717;53.040;18.488;2023-11-19T00:11:05;101915.38;;;1.27;100.00
53619;BME280;68717;53.040;18.488;2023-11-19T00:11:18;101912.75;;;1.27;100.00
53619;BME280;68717;53.040;18.488;2023-11-19T00:11:31;101913.66;;;1.26;100.00
53619;BME280;68717;53.040;18.488;2023-11-19T00:11:43;101911.88;;;1.27;100.00
53619;BME280;68717;53.040;18.488;2023-11-19T00:12:06;101913.66;;;1.26;100.00
53619;BME280;68717;53.040;18.488;2023-11-19T00:12:19;101917.16;;;1.27;100.00
53619;BME280;68717;53.040;18.488;2023-11-19T00:12:33;101915.41;;;1.26;100.00
53619;BME280;68717;53.040;18.488;2023-11-19T00:12:47;101913.66;;;1.26;100.00
53619;BME280;68717;53.040;18.488;2023-11-19T00:13:00;101914.56;;;1.25;100.00
53619;BME280;68717;53.040;18.488;2023-11-19T00:13:15;101922.47;;;1.25;100.00
53619;BME280;68717;53.040;18.488;2023-11-19T00:13:28;101917.19;;;1.25;100.00
53619;BME280;68717;53.040;18.488;2023-11-19T00:13:41;101920.75;;;1.24;100.00
53619;BME280;68717;53.040;18.488;2023-11-19T00:13:53;101919.00;;;1.23;100.00
53619;BME280;68717;53.040;18.488;2023-11-19T00:14:06;101913.72;;;1.23;100.00
53619;BME280;68717;53.040;18.488;2023-11-19T00:14:21;101914.66;;;1.22;100.00
53619;BME280;68717;53.040;18.488;2023-11-19T00:14:33;101912.00;;;1.22;100.00
53619;BME280;68717;53.040;18.488;2023-11-19T00:14:47;101910.28;;;1.21;100.00
53619;BME280;68717;53.040;18.488;2023-11-19T00:15:00;101913.84;;;1.20;100.00
53619;BME280;68717;53.040;18.488;2023-11-19T00:15:13;101914.69;;;1.20;100.00
53619;BME280;68717;53.040;18.488;2023-11-19T00:15:26;101905.94;;;1.18;100.00
53619;BME280;68717;53.040;18.488;2023-11-19T00:15:39;101906.81;;;1.19;100.00
53619;BME280;68717;53.040;18.488;2023-11-19T00:15:51;101906.81;;;1.19;100.00
53619;BME280;68717;53.040;18.488;2023-11-19T00:16:06;101913.00;;;1.18;100.00
53619;BME280;68717;53.040;18.488;2023-11-19T00:16:22;101908.63;;;1.17;100.00
53619;BME280;68717;53.040;18.488;2023-11-19T00:16:36;101910.41;;;1.16;100.00
53619;BME280;68717;53.040;18.488;2023-11-19T00:16:48;101911.31;;;1.15;100.00
53619;BME280;68717;53.040;18.488;2023-11-19T00:17:03;101913.06;;;1.15;100.00
53619;BME280;68717;53.040;18.488;2023-11-19T00:17:16;101905.16;;;1.15;100.00
53619;BME280;68717;53.040;18.488;2023-11-19T00:17:29;101910.44;;;1.15;100.00
53619;BME280;68717;53.040;18.488;2023-11-19T00:17:43;101905.16;;;1.15;100.00
53619;BME280;68717;53.040;18.488;2023-11-19T00:17:57;101908.69;;;1.15;100.00
53619;BME280;68717;53.040;18.488;2023-11-19T00:18:13;101903.44;;;1.14;100.00
53619;BME280;68717;53.040;18.488;2023-11-19T00:18:26;101903.44;;;1.14;100.00
53619;BME280;68717;53.040;18.488;2023-11-19T00:18:39;101911.31;;;1.15;100.00
53619;BME280;68717;53.040;18.488;2023-11-19T00:18:52;101907.78;;;1.15;100.00
53619;BME280;68717;53.040;18.488;2023-11-19T00:19:05;101899.00;;;1.14;100.00
53619;BME280;68717;53.040;18.488;2023-11-19T00:19:18;101910.44;;;1.15;100.00
53619;BME280;68717;53.040;18.488;2023-11-19T00:19:31;101911.31;;;1.15;100.00
53619;BME280;68717;53.040;18.488;2023-11-19T00:19:43;101907.78;;;1.15;100.00
53619;BME280;68717;53.040;18.488;2023-11-19T00:19:56;101907.78;;;1.15;100.00
53619;BME280;68717;53.040;18.488;2023-11-19T00:20:11;101909.56;;;1.14;100.00
53619;BME280;68717;53.040;18.488;2023-11-19T00:20:23;101909.56;;;1.14;100.00
53619;BME280;68717;53.040;18.488;2023-11-19T00:20:37;101907.78;;;1.15;100.00
53619;BME280;68717;53.040;18.488;2023-11-19T00:20:50;101909.56;;;1.14;100.00
53619;BME280;68717;53.040;18.488;2023-11-19T00:21:03;101906.94;;;1.14;100.00
53619;BME280;68717;53.040;18.488;2023-11-19T00:21:15;101909.56;;;1.14;100.00
53619;BME280;68717;53.040;18.488;2023-11-19T00:21:28;101909.56;;;1.14;100.00
53619;BME280;68717;53.040;18.488;2023-11-19T00:21:41;101906.06;;;1.14;100.00
53619;BME280;68717;53.040;18.488;2023-11-19T00:21:54;101901.69;;;1.13;100.00
53619;BME280;68717;53.040;18.488;2023-11-19T00:22:06;101901.69;;;1.13;100.00
53619;BME280;68717;53.040;18.488;2023-11-19T00:22:19;101907.88;;;1.13;100.00
53619;BME280;68717;53.040;18.488;2023-11-19T00:22:34;101906.97;;;1.13;100.00
53619;BME280;68717;53.040;18.488;2023-11-19T00:22:48;101901.69;;;1.13;100.00
53619;BME280;68717;53.040;18.488;2023-11-19T00:23:04;101901.69;;;1.13;100.00
53619;BME280;68717;53.040;18.488;2023-11-19T00:23:17;101906.13;;;1.12;100.00
53619;BME280;68717;53.040;18.488;2023-11-19T00:23:29;101906.13;;;1.12;100.00
53619;BME280;68717;53.040;18.488;2023-11-19T00:23:42;101903.47;;;1.12;100.00
53619;BME280;68717;53.040;18.488;2023-11-19T00:23:54;101906.13;;;1.12;100.00
53619;BME280;68717;53.040;18.488;2023-11-19T00:24:10;101903.47;;;1.12;100.00
53619;BME280;68717;53.040;18.488;2023-11-19T00:24:24;101903.47;;;1.12;100.00
53619;BME280;68717;53.040;18.488;2023-11-19T00:24:38;101900.84;;;1.12;100.00
53619;BME280;68717;53.040;18.488;2023-11-19T00:24:51;101906.06;;;1.14;100.00
53619;BME280;68717;53.040;18.488;2023-11-19T00:25:05;101906.13;;;1.12;100.00
53619;BME280;68717;53.040;18.488;2023-11-19T00:25:18;101905.25;;;1.12;100.00
53619;BME280;68717;53.040;18.488;2023-11-19T00:25:31;101899.97;;;1.12;100.00
53619;BME280;68717;53.040;18.488;2023-11-19T00:25:44;101899.97;;;1.12;100.00
53619;BME280;68717;53.040;18.488;2023-11-19T00:25:57;101903.47;;;1.12;100.00
53619;BME280;68717;53.040;18.488;2023-11-19T00:26:10;101899.13;;;1.11;100.00
53619;BME280;68717;53.040;18.488;2023-11-19T00:26:24;101899.13;;;1.11;100.00
53619;BME280;68717;53.040;18.488;2023-11-19T00:26:37;101900.88;;;1.11;100.00
53619;BME280;68717;53.040;18.488;2023-11-19T00:26:50;101902.63;;;1.12;100.00
53619;BME280;68717;53.040;18.488;2023-11-19T00:27:03;101899.97;;;1.12;100.00
53619;BME280;68717;53.040;18.488;2023-11-19T00:27:16;101902.63;;;1.12;100.00
53619;BME280;68717;53.040;18.488;2023-11-19T00:27:28;101900.88;;;1.11;100.00
53619;BME280;68717;53.040;18.488;2023-11-19T00:27:41;101899.13;;;1.11;100.00
53619;BME280;68717;53.040;18.488;2023-11-19T00:27:57;101901.75;;;1.11;100.00
53619;BME280;68717;53.040;18.488;2023-11-19T00:28:11;101896.47;;;1.11;100.00
53619;BME280;68717;53.040;18.488;2023-11-19T00:28:24;101890.31;;;1.11;100.00
53619;BME280;68717;53.040;18.488;2023-11-19T00:28:37;101892.94;;;1.11;100.00
53619;BME280;68717;53.040;18.488;2023-11-19T00:28:51;101897.38;;;1.10;100.00
53619;BME280;68717;53.040;18.488;2023-11-19T00:29:05;101892.94;;;1.11;100.00
53619;BME280;68717;53.040;18.488;2023-11-19T00:29:18;101901.78;;;1.10;100.00
53619;BME280;68717;53.040;18.488;2023-11-19T00:29:32;101899.16;;;1.10;100.00
53619;BME280;68717;53.040;18.488;2023-11-19T00:29:45;101891.22;;;1.10;100.00
53619;BME280;68717;53.040;18.488;2023-11-19T00:29:58;101891.22;;;1.10;100.00
53619;BME280;68717;53.040;18.488;2023-11-19T00:30:12;101890.38;;;1.09;100.00
53619;BME280;68717;53.040;18.488;2023-11-19T00:30:26;101892.16;;;1.09;100.00
53619;BME280;68717;53.040;18.488;2023-11-19T00:30:39;101888.63;;;1.08;100.00
53619;BME280;68717;53.040;18.488;2023-11-19T00:30:53;101888.63;;;1.08;100.00
53619;BME280;68717;53.040;18.488;2023-11-19T00:31:05;101891.22;;;1.10;100.00
53619;BME280;68717;53.040;18.488;2023-11-19T00:31:21;101896.50;;;1.10;100.00
53619;BME280;68717;53.040;18.488;2023-11-19T00:31:34;101895.66;;;1.09;100.00
53619;BME280;68717;53.040;18.488;2023-11-19T00:31:47;101892.94;;;1.11;100.00
53619;BME280;68717;53.040;18.488;2023-11-19T00:32:00;101896.50;;;1.10;100.00
53619;BME280;68717;53.040;18.488;2023-11-19T00:32:14;101897.38;;;1.10;100.00
53619;BME280;68717;53.040;18.488;2023-11-19T00:32:27;101896.50;;;1.10;100.00
53619;BME280;68717;53.040;18.488;2023-11-19T00:32:40;101896.50;;;1.10;100.00
53619;BME280;68717;53.040;18.488;2023-11-19T00:32:53;101891.22;;;1.10;100.00
53619;BME280;68717;53.040;18.488;2023-11-19T00:33:05;101893.84;;;1.11;100.00
53619;BME280;68717;53.040;18.488;2023-11-19T00:33:18;101891.19;;;1.11;100.00
53619;BME280;68717;53.040;18.488;2023-11-19T00:33:31;101894.72;;;1.10;100.00
53619;BME280;68717;53.040;18.488;2023-11-19T00:33:44;101896.47;;;1.11;100.00
53619;BME280;68717;53.040;18.488;2023-11-19T00:33:59;101890.38;;;1.09;100.00
53619;BME280;68717;53.040;18.488;2023-11-19T00:34:14;101891.22;;;1.10;100.00
53619;BME280;68717;53.040;18.488;2023-11-19T00:34:27;101893.88;;;1.10;100.00
53619;BME280;68717;53.040;18.488;2023-11-19T00:34:39;101891.22;;;1.10;100.00
53619;BME280;68717;53.040;18.488;2023-11-19T00:34:52;101892.16;;;1.09;100.00
53619;BME280;68717;53.040;18.488;2023-11-19T00:35:05;101897.44;;;1.09;100.00
53619;BME280;68717;53.040;18.488;2023-11-19T00:35:21;101896.47;;;1.11;100.00
53619;BME280;68717;53.040;18.488;2023-11-19T00:35:33;101892.09;;;1.10;100.00
53619;BME280;68717;53.040;18.488;2023-11-19T00:35:46;101900.88;;;1.11;100.00
53619;BME280;68717;53.040;18.488;2023-11-19T00:35:59;101895.66;;;1.09;100.00
53619;BME280;68717;53.040;18.488;2023-11-19T00:36:11;101900.06;;;1.09;100.00
53619;BME280;68717;53.040;18.488;2023-11-19T00:36:24;101896.50;;;1.10;100.00
53619;BME280;68717;53.040;18.488;2023-11-19T00:36:37;101893.88;;;1.10;100.00
53619;BME280;68717;53.040;18.488;2023-11-19T00:36:50;101898.28;;;1.09;100.00
53619;BME280;68717;53.040;18.488;2023-11-19T00:37:03;101895.69;;;1.08;100.00
53619;BME280;68717;53.040;18.488;2023-11-19T00:37:16;101897.44;;;1.09;100.00
53619;BME280;68717;53.040;18.488;2023-11-19T00:37:30;101899.16;;;1.10;100.00
53619;BME280;68717;53.040;18.488;2023-11-19T00:37:43;101893.88;;;1.10;100.00
53619;BME280;68717;53.040;18.488;2023-11-19T00:37:58;101893.03;;;1.08;100.00
53619;BME280;68717;53.040;18.488;2023-11-19T00:38:11;101893.91;;;1.08;100.00
53619;BME280;68717;53.040;18.488;2023-11-19T00:38:23;101893.03;;;1.08;100.00
53619;BME280;68717;53.040;18.488;2023-11-19T00:38:36;101890.44;;;1.06;100.00
53619;BME280;68717;53.040;18.488;2023-11-19T00:38:49;101895.72;;;1.06;100.00
53619;BME280;68717;53.040;18.488;2023-11-19T00:39:02;101889.56;;;1.06;100.00
53619;BME280;68717;53.040;18.488;2023-11-19T00:39:15;101893.06;;;1.06;100.00
53619;BME280;68717;53.040;18.488;2023-11-19T00:39:28;101891.31;;;1.07;100.00
53619;BME280;68717;53.040;18.488;2023-11-19T00:39:41;101890.44;;;1.06;100.00
53619;BME280;68717;53.040;18.488;2023-11-19T00:39:54;101894.84;;;1.06;100.00
53619;BME280;68717;53.040;18.488;2023-11-19T00:40:09;101886.94;;;1.06;100.00
53619;BME280;68717;53.040;18.488;2023-11-19T00:40:23;101889.56;;;1.06;100.00
53619;BME280;68717;53.040;18.488;2023-11-19T00:40:36;101890.44;;;1.06;100.00
53619;BME280;68717;53.040;18.488;2023-11-19T00:40:49;101893.06;;;1.06;100.00
53619;BME280;68717;53.040;18.488;2023-11-19T00:41:02;101891.31;;;1.07;100.00
53619;BME280;68717;53.040;18.488;2023-11-19T00:41:16;101893.06;;;1.06;100.00
53619;BME280;68717;53.040;18.488;2023-11-19T00:41:29;101889.56;;;1.06;100.00
53619;BME280;68717;53.040;18.488;2023-11-19T00:41:41;101896.59;;;1.07;100.00
53619;BME280;68717;53.040;18.488;2023-11-19T00:41:54;101897.50;;;1.06;100.00
53619;BME280;68717;53.040;18.488;2023-11-19T00:42:07;101889.56;;;1.06;100.00
53619;BME280;68717;53.040;18.488;2023-11-19T00:42:19;101897.47;;;1.07;100.00
53619;BME280;68717;53.040;18.488;2023-11-19T00:42:32;101892.22;;;1.06;100.00
53619;BME280;68717;53.040;18.488;2023-11-19T00:42:45;101893.16;;;1.05;100.00
53619;BME280;68717;53.040;18.488;2023-11-19T00:43:00;101894.84;;;1.06;100.00
53619;BME280;68717;53.040;18.488;2023-11-19T00:43:13;101892.22;;;1.06;100.00
53619;BME280;68717;53.040;18.488;2023-11-19T00:43:26;101893.97;;;1.07;100.00
53619;BME280;68717;53.040;18.488;2023-11-19T00:43:39;101893.06;;;1.06;100.00
53619;BME280;68717;53.040;18.488;2023-11-19T00:43:52;101888.72;;;1.05;100.00
53619;BME280;68717;53.040;18.488;2023-11-19T00:44:05;101901.00;;;1.06;100.00
53619;BME280;68717;53.040;18.488;2023-11-19T00:44:17;101889.56;;;1.06;100.00
53619;BME280;68717;53.040;18.488;2023-11-19T00:44:32;101897.53;;;1.04;100.00
53619;BME280;68717;53.040;18.488;2023-11-19T00:44:44;101894.00;;;1.05;100.00
53619;BME280;68717;53.040;18.488;2023-11-19T00:45:00;101891.41;;;1.04;100.00
53619;BME280;68717;53.040;18.488;2023-11-19T00:45:14;101888.75;;;1.04;100.00
53619;BME280;68717;53.040;18.488;2023-11-19T00:45:27;101891.41;;;1.04;100.00
53619;BME280;68717;53.040;18.488;2023-11-19T00:45:40;101891.41;;;1.04;100.00
53619;BME280;68717;53.040;18.488;2023-11-19T00:45:53;101888.78;;;1.02;100.00
53619;BME280;68717;53.040;18.488;2023-11-19T00:46:09;101892.31;;;1.03;100.00
53619;BME280;68717;53.040;18.488;2023-11-19T00:46:23;101889.69;;;1.03;100.00
53619;BME280;68717;53.040;18.488;2023-11-19T00:46:36;101887.94;;;1.02;100.00
53619;BME280;68717;53.040;18.488;2023-11-19T00:46:49;101889.69;;;1.03;100.00
53619;BME280;68717;53.040;18.488;2023-11-19T00:47:02;101887.94;;;1.02;100.00
53619;BME280;68717;53.040;18.488;2023-11-19T00:47:17;101882.66;;;1.02;100.00
53619;BME280;68717;53.040;18.488;2023-11-19T00:47:32;101885.28;;;1.02;100.00
53619;BME280;68717;53.040;18.488;2023-11-19T00:47:45;101880.94;;;1.01;100.00
53619;BME280;68717;53.040;18.488;2023-11-19T00:47:58;101887.94;;;1.02;100.00
53619;BME280;68717;53.040;18.488;2023-11-19T00:48:12;101886.22;;;1.01;100.00
53619;BME280;68717;53.040;18.488;2023-11-19T00:48:25;101883.50;;;1.02;100.00
53619;BME280;68717;53.040;18.488;2023-11-19T00:48:39;101877.38;;;1.02;100.00
53619;BME280;68717;53.040;18.488;2023-11-19T00:48:52;101880.00;;;1.02;100.00
53619;BME280;68717;53.040;18.488;2023-11-19T00:49:05;101877.38;;;1.02;100.00
53619;BME280;68717;53.040;18.488;2023-11-19T00:49:18;101878.22;;;1.02;100.00
53619;BME280;68717;53.040;18.488;2023-11-19T00:49:32;101873.88;;;1.01;100.00
53619;BME280;68717;53.040;18.488;2023-11-19T00:49:45;101872.09;;;1.02;100.00
53619;BME280;68717;53.040;18.488;2023-11-19T00:49:57;101872.94;;;1.02;100.00
53619;BME280;68717;53.040;18.488;2023-11-19T00:50:10;101882.66;;;1.02;100.00
53619;BME280;68717;53.040;18.488;2023-11-19T00:50:25;101871.19;;;1.03;100.00
53619;BME280;68717;53.040;18.488;2023-11-19T00:50:37;101872.09;;;1.02;100.00
53619;BME280;68717;53.040;18.488;2023-11-19T00:50:55;101870.31;;;1.02;100.00
53619;BME280;68717;53.040;18.488;2023-11-19T00:51:07;101874.69;;;1.03;100.00
53619;BME280;68717;53.040;18.488;2023-11-19T00:51:20;101870.28;;;1.04;100.00
53619;BME280;68717;53.040;18.488;2023-11-19T00:51:32;101878.19;;;1.04;100.00
53619;BME280;68717;53.040;18.488;2023-11-19T00:51:46;101874.69;;;1.03;100.00
53619;BME280;68717;53.040;18.488;2023-11-19T00:51:59;101875.59;;;1.02;100.00
53619;BME280;68717;53.040;18.488;2023-11-19T00:52:12;101872.09;;;1.02;100.00
53619;BME280;68717;53.040;18.488;2023-11-19T00:52:25;101869.44;;;1.02;100.00
53619;BME280;68717;53.040;18.488;2023-11-19T00:52:38;101866.81;;;1.02;100.00
53619;BME280;68717;53.040;18.488;2023-11-19T00:52:51;101873.88;;;1.01;100.00
53619;BME280;68717;53.040;18.488;2023-11-19T00:53:04;101867.72;;;1.01;100.00
53619;BME280;68717;53.040;18.488;2023-11-19T00:53:17;101864.22;;;1.00;100.00
53619;BME280;68717;53.040;18.488;2023-11-19T00:53:29;101876.50;;;1.01;100.00
53619;BME280;68717;53.040;18.488;2023-11-19T00:53:42;101869.50;;;1.00;100.00
53619;BME280;68717;53.040;18.488;2023-11-19T00:53:55;101867.72;;;1.01;100.00
53619;BME280;68717;53.040;18.488;2023-11-19T00:54:08;101869.44;;;1.02;100.00
53619;BME280;68717;53.040;18.488;2023-11-19T00:54:21;101866.88;;;1.00;100.00
53619;BME280;68717;53.040;18.488;2023-11-19T00:54:34;101867.72;;;1.01;100.00
53619;BME280;68717;53.040;18.488;2023-11-19T00:54:47;101873.88;;;1.01;100.00
53619;BME280;68717;53.040;18.488;2023-11-19T00:55:00;101868.59;;;1.01;100.00
53619;BME280;68717;53.040;18.488;2023-11-19T00:55:12;101870.38;;;1.01;100.00
53619;BME280;68717;53.040;18.488;2023-11-19T00:55:25;101872.09;;;1.02;100.00
53619;BME280;68717;53.040;18.488;2023-11-19T00:55:39;101870.38;;;1.01;100.00
53619;BME280;68717;53.040;18.488;2023-11-19T00:55:55;101865.09;;;1.01;100.00
53619;BME280;68717;53.040;18.488;2023-11-19T00:56:08;101869.44;;;1.02;100.00
53619;BME280;68717;53.040;18.488;2023-11-19T00:56:24;101867.72;;;1.01;100.00
53619;BME280;68717;53.040;18.488;2023-11-19T00:56:37;101864.16;;;1.02;100.00
53619;BME280;68717;53.040;18.488;2023-11-19T00:56:49;101870.38;;;1.01;100.00
53619;BME280;68717;53.040;18.488;2023-11-19T00:57:04;101866.81;;;1.02;100.00
53619;BME280;68717;53.040;18.488;2023-11-19T00:57:18;101865.94;;;1.01;100.00
53619;BME280;68717;53.040;18.488;2023-11-19T00:57:31;101861.53;;;1.02;100.00
53619;BME280;68717;53.040;18.488;2023-11-19T00:57:44;101865.09;;;1.01;100.00
53619;BME280;68717;53.040;18.488;2023-11-19T00:57:57;101859.81;;;1.01;100.00
53619;BME280;68717;53.040;18.488;2023-11-19T00:58:10;101860.66;;;1.01;100.00
53619;BME280;68717;53.040;18.488;2023-11-19T00:58:23;101860.66;;;1.01;100.00
53619;BME280;68717;53.040;18.488;2023-11-19T00:58:35;101861.53;;;1.02;100.00
53619;BME280;68717;53.040;18.488;2023-11-19T00:58:49;101862.38;;;1.02;100.00
53619;BME280;68717;53.040;18.488;2023-11-19T00:59:02;101860.66;;;1.01;100.00
53619;BME280;68717;53.040;18.488;2023-11-19T00:59:16;101862.38;;;1.02;100.00
53619;BME280;68717;53.040;18.488;2023-11-19T00:59:28;101858.00;;;1.03;100.00
53619;BME280;68717;53.040;18.488;2023-11-19T00:59:41;101858.84;;;1.03;100.00
53619;BME280;68717;53.040;18.488;2023-11-19T00:59:54;101860.56;;;1.04;100.00
53619;BME280;68717;53.040;18.488;2023-11-19T01:00:08;101858.84;;;1.03;100.00
53619;BME280;68717;53.040;18.488;2023-11-19T01:00:28;101858.00;;;1.03;100.00
53619;BME280;68717;53.040;18.488;2023-11-19T01:00:41;101856.22;;;1.03;100.00
53619;BME280;68717;53.040;18.488;2023-11-19T01:00:55;101858.00;;;1.03;100.00
53619;BME280;68717;53.040;18.488;2023-11-19T01:01:11;101854.47;;;1.02;100.00
53619;BME280;68717;53.040;18.488;2023-11-19T01:01:24;101856.25;;;1.02;100.00
53619;BME280;68717;53.040;18.488;2023-11-19T01:01:37;101858.88;;;1.02;100.00
53619;BME280;68717;53.040;18.488;2023-11-19T01:01:50;101853.59;;;1.02;100.00
53619;BME280;68717;53.040;18.488;2023-11-19T01:02:03;101843.91;;;1.02;100.00
53619;BME280;68717;53.040;18.488;2023-11-19T01:02:18;101845.69;;;1.02;100.00
53619;BME280;68717;53.040;18.488;2023-11-19T01:02:31;101853.59;;;1.02;100.00
53619;BME280;68717;53.040;18.488;2023-11-19T01:02:44;101850.97;;;1.02;100.00
53619;BME280;68717;53.040;18.488;2023-11-19T01:02:58;101847.47;;;1.01;100.00
53619;BME280;68717;53.040;18.488;2023-11-19T01:03:12;101845.69;;;1.02;100.00
53619;BME280;68717;53.040;18.488;2023-11-19T01:03:25;101845.69;;;1.02;100.00
53619;BME280;68717;53.040;18.488;2023-11-19T01:03:38;101851.88;;;1.01;100.00
53619;BME280;68717;53.040;18.488;2023-11-19T01:03:51;101843.03;;;1.02;100.00
53619;BME280;68717;53.040;18.488;2023-11-19T01:04:04;101845.69;;;1.02;100.00
53619;BME280;68717;53.040;18.488;2023-11-19T01:04:18;101846.53;;;1.02;100.00
53619;BME280;68717;53.040;18.488;2023-11-19T01:04:33;101841.25;;;1.02;100.00
53619;BME280;68717;53.040;18.488;2023-11-19T01:04:47;101842.16;;;1.03;100.00
53619;BME280;68717;53.040;18.488;2023-11-19T01:05:01;101835.13;;;1.02;100.00
53619;BME280;68717;53.040;18.488;2023-11-19T01:05:14;101843.84;;;1.04;100.00
53619;BME280;68717;53.040;18.488;2023-11-19T01:05:28;101837.72;;;1.03;100.00
53619;BME280;68717;53.040;18.488;2023-11-19T01:05:41;101843.00;;;1.03;100.00
53619;BME280;68717;53.040;18.488;2023-11-19T01:05:53;101840.38;;;1.03;100.00
53619;BME280;68717;53.040;18.488;2023-11-19T01:06:07;101837.72;;;1.03;100.00
53619;BME280;68717;53.040;18.488;2023-11-19T01:06:27;101843.91;;;1.02;100.00
53619;BME280;68717;53.040;18.488;2023-11-19T01:06:40;101832.47;;;1.02;100.00
53619;BME280;68717;53.040;18.488;2023-11-19T01:06:57;101835.13;;;1.02;100.00
53619;BME280;68717;53.040;18.488;2023-11-19T01:07:10;101836.91;;;1.01;100.00
53619;BME280;68717;53.040;18.488;2023-11-19T01:07:25;101836.03;;;1.01;100.00
53619;BME280;68717;53.040;18.488;2023-11-19T01:07:39;101836.91;;;1.01;100.00
53619;BME280;68717;53.040;18.488;2023-11-19T01:07:52;101838.69;;;1.01;100.00
53619;BME280;68717;53.040;18.488;2023-11-19T01:08:07;101836.03;;;1.01;100.00
53619;BME280;68717;53.040;18.488;2023-11-19T01:08:20;101833.41;;;1.01;100.00
53619;BME280;68717;53.040;18.488;2023-11-19T01:08:33;101831.66;;;0.99;100.00
53619;BME280;68717;53.040;18.488;2023-11-19T01:08:48;101829.91;;;1.00;100.00
53619;BME280;68717;53.040;18.488;2023-11-19T01:09:00;101831.66;;;0.99;100.00
53619;BME280;68717;53.040;18.488;2023-11-19T01:09:13;101829.00;;;0.99;100.00
53619;BME280;68717;53.040;18.488;2023-11-19T01:09:25;101838.69;;;1.01;100.00
53619;BME280;68717;53.040;18.488;2023-11-19T01:09:38;101834.28;;;0.99;100.00
53619;BME280;68717;53.040;18.488;2023-11-19T01:09:52;101827.25;;;1.00;100.00
53619;BME280;68717;53.040;18.488;2023-11-19T01:10:05;101828.16;;;0.99;100.00